Time;durP1;ratioP1;P1;durP2;ratioP2;P2;SDS_P1;SDS_P2;PMS_P1;PMS_P2;Temp;Humidity;BMP_temperature;BMP_pressure;BME280_temperature;BME280_humidity;BME280_pressure;Samples;Min_cycle;Max_cycle;Signal;HPM_P1;HPM_P2
2023/09/27 00:01:28;;;;;;;0.80;0.80;;;;;;;;;;5115748;28;20535;-61
2023/09/27 00:03:56;;;;;;;0.70;0.70;;;;;;;;;;5115630;28;20488;-61
2023/09/27 00:06:24;;;;;;;0.80;0.80;;;;;;;;;;5115746;28;20505;-61
2023/09/27 00:08:51;;;;;;;0.70;0.70;;;;;;;;;;5115783;28;20432;-61
2023/09/27 00:11:18;;;;;;;0.70;0.70;;;;;;;;;;5116035;28;20523;-61
2023/09/27 00:13:46;;;;;;;0.80;0.80;;;;;;;;;;5115626;28;20477;-61
2023/09/27 00:16:14;;;;;;;0.80;0.80;;;;;;;;;;5115534;28;20447;-61
2023/09/27 00:18:41;;;;;;;0.70;0.70;;;;;;;;;;5115732;28;20868;-61
2023/09/27 00:21:09;;;;;;;0.80;0.80;;;;;;;;;;5116142;28;20516;-61
2023/09/27 00:23:37;;;;;;;0.77;0.77;;;;;;;;;;5115549;28;20547;-61
2023/09/27 00:26:04;;;;;;;0.70;0.70;;;;;;;;;;5115369;28;20493;-61
2023/09/27 00:28:31;;;;;;;0.80;0.80;;;;;;;;;;5115112;28;20493;-61
2023/09/27 00:30:58;;;;;;;0.80;0.80;;;;;;;;;;5115639;28;20523;-61
2023/09/27 00:33:25;;;;;;;1.00;0.97;;;;;;;;;;5114981;28;20474;-61
2023/09/27 00:35:53;;;;;;;1.00;1.00;;;;;;;;;;5115437;28;20953;-61
2023/09/27 00:38:21;;;;;;;0.80;0.80;;;;;;;;;;5115636;28;20533;-61
2023/09/27 00:40:49;;;;;;;0.80;0.80;;;;;;;;;;5113958;28;20434;-61
2023/09/27 00:43:26;;;;;;;1.17;1.17;;;;;;;;;;5115469;28;20447;-62
2023/09/27 00:45:54;;;;;;;1.60;1.50;;;;;;;;;;5115541;28;20522;-61
2023/09/27 00:48:21;;;;;;;0.80;0.80;;;;;;;;;;5115222;28;20448;-61
2023/09/27 00:50:48;;;;;;;0.80;0.80;;;;;;;;;;5115112;28;20449;-61
2023/09/27 00:53:15;;;;;;;0.80;0.80;;;;;;;;;;5114976;28;20487;-61
2023/09/27 00:55:44;;;;;;;0.80;0.80;;;;;;;;;;5115253;28;20471;-61
2023/09/27 00:58:11;;;;;;;0.80;0.80;;;;;;;;;;5114981;28;20834;-61
2023/09/27 01:00:39;;;;;;;0.80;0.80;;;;;;;;;;5114941;28;20536;-62
2023/09/27 01:03:06;;;;;;;0.80;0.80;;;;;;;;;;5114827;28;20445;-61
2023/09/27 01:05:33;;;;;;;0.80;0.80;;;;;;;;;;5114444;28;20558;-61
2023/09/27 01:08:00;;;;;;;0.70;0.70;;;;;;;;;;5115142;28;20437;-61
2023/09/27 01:10:27;;;;;;;0.80;0.80;;;;;;;;;;5114162;28;20440;-62
2023/09/27 01:12:56;;;;;;;0.80;0.80;;;;;;;;;;5114492;28;20483;-62
2023/09/27 01:15:23;;;;;;;0.80;0.80;;;;;;;;;;5114438;28;20443;-62
2023/09/27 01:17:53;;;;;;;0.80;0.80;;;;;;;;;;5114812;28;20858;-62
2023/09/27 01:20:21;;;;;;;0.77;0.77;;;;;;;;;;5114716;28;20437;-62
2023/09/27 01:22:53;;;;;;;0.70;0.70;;;;;;;;;;5114492;28;20434;-61
2023/09/27 01:25:22;;;;;;;0.80;0.80;;;;;;;;;;5126507;27;20994;-61
2023/09/27 01:27:50;;;;;;;0.80;0.80;;;;;;;;;;5135192;27;20437;-61
2023/09/27 01:30:17;;;;;;;0.70;0.70;;;;;;;;;;5135237;27;20726;-61
2023/09/27 01:32:44;;;;;;;0.80;0.80;;;;;;;;;;5134960;27;20491;-61
2023/09/27 01:35:11;;;;;;;0.80;0.80;;;;;;;;;;5134766;27;20534;-61
2023/09/27 01:37:38;;;;;;;0.80;0.80;;;;;;;;;;5134575;27;20442;-62
2023/09/27 01:40:10;;;;;;;0.70;0.70;;;;;;;;;;5134836;27;20875;-62
2023/09/27 01:42:42;;;;;;;0.70;0.70;;;;;;;;;;5134537;27;20421;-62
2023/09/27 01:45:10;;;;;;;0.80;0.80;;;;;;;;;;5134731;27;20902;-62
2023/09/27 01:47:38;;;;;;;0.77;0.77;;;;;;;;;;5135325;27;20432;-62
2023/09/27 01:50:06;;;;;;;0.80;0.80;;;;;;;;;;5134658;27;20446;-62
2023/09/27 01:52:33;;;;;;;0.70;0.70;;;;;;;;;;5133871;27;20448;-62
2023/09/27 01:55:00;;;;;;;0.70;0.70;;;;;;;;;;5134829;27;20994;-62
2023/09/27 01:57:29;;;;;;;0.80;0.80;;;;;;;;;;5134644;27;20789;-62
2023/09/27 01:59:56;;;;;;;0.80;0.80;;;;;;;;;;5134486;27;20453;-62
2023/09/27 02:02:23;;;;;;;0.80;0.80;;;;;;;;;;5134182;27;20434;-62
2023/09/27 02:04:50;;;;;;;0.80;0.80;;;;;;;;;;5134622;27;20521;-62
2023/09/27 02:07:18;;;;;;;0.80;0.80;;;;;;;;;;5134024;27;20992;-61
2023/09/27 02:09:45;;;;;;;0.80;0.80;;;;;;;;;;5134060;27;20523;-61
2023/09/27 02:12:12;;;;;;;0.80;0.80;;;;;;;;;;5134119;27;20471;-61
2023/09/27 02:14:41;;;;;;;0.80;0.80;;;;;;;;;;5134295;27;21040;-62
2023/09/27 02:17:08;;;;;;;0.80;0.80;;;;;;;;;;5134208;27;20444;-62
2023/09/27 02:19:35;;;;;;;0.70;0.70;;;;;;;;;;5134392;27;20439;-61
2023/09/27 02:22:02;;;;;;;0.70;0.70;;;;;;;;;;5133899;28;20437;-61
2023/09/27 02:24:30;;;;;;;0.70;0.70;;;;;;;;;;5134121;28;20560;-62
2023/09/27 02:26:57;;;;;;;0.80;0.80;;;;;;;;;;5134196;28;20433;-61
2023/09/27 02:29:25;;;;;;;0.80;0.80;;;;;;;;;;5134248;28;20525;-61
2023/09/27 02:31:53;;;;;;;0.70;0.70;;;;;;;;;;5133836;28;20786;-61
2023/09/27 02:34:20;;;;;;;0.70;0.70;;;;;;;;;;5134342;28;20905;-61
2023/09/27 02:36:48;;;;;;;0.70;0.70;;;;;;;;;;5134012;28;20529;-61
2023/09/27 02:39:15;;;;;;;0.70;0.70;;;;;;;;;;5134098;28;20551;-61
2023/09/27 02:41:43;;;;;;;0.80;0.80;;;;;;;;;;5134048;28;20850;-62
2023/09/27 02:44:11;;;;;;;0.70;0.70;;;;;;;;;;5134473;28;20532;-61
2023/09/27 02:46:38;;;;;;;0.80;0.80;;;;;;;;;;5133622;28;20440;-62
2023/09/27 02:49:07;;;;;;;0.80;0.80;;;;;;;;;;5134055;28;20527;-62
2023/09/27 02:51:34;;;;;;;0.80;0.80;;;;;;;;;;5133642;28;20451;-62
2023/09/27 02:54:01;;;;;;;0.80;0.80;;;;;;;;;;5134043;28;20483;-62
2023/09/27 02:56:28;;;;;;;0.70;0.70;;;;;;;;;;5133525;28;20960;-62
2023/09/27 02:58:56;;;;;;;0.73;0.73;;;;;;;;;;5134435;28;20860;-62
2023/09/27 03:01:24;;;;;;;0.80;0.80;;;;;;;;;;5133406;28;20476;-62
2023/09/27 03:03:51;;;;;;;0.80;0.80;;;;;;;;;;5134456;27;20482;-62
2023/09/27 03:06:20;;;;;;;0.80;0.80;;;;;;;;;;5137512;27;20953;-62
2023/09/27 03:08:48;;;;;;;0.70;0.70;;;;;;;;;;5137660;27;20519;-62
2023/09/27 03:11:15;;;;;;;0.80;0.80;;;;;;;;;;5137576;27;20453;-62
2023/09/27 03:13:44;;;;;;;0.70;0.70;;;;;;;;;;5137644;27;20479;-62
2023/09/27 03:16:12;;;;;;;0.80;0.80;;;;;;;;;;5137532;27;20459;-62
2023/09/27 03:18:39;;;;;;;0.80;0.80;;;;;;;;;;5137612;27;20436;-62
2023/09/27 03:21:06;;;;;;;0.80;0.80;;;;;;;;;;5137151;27;21013;-62
2023/09/27 03:23:35;;;;;;;0.70;0.70;;;;;;;;;;5137849;27;20446;-62
2023/09/27 03:26:03;;;;;;;0.80;0.80;;;;;;;;;;5136856;27;20544;-63
2023/09/27 03:28:30;;;;;;;0.80;0.80;;;;;;;;;;5138355;27;20467;-63
2023/09/27 03:30:57;;;;;;;0.80;0.80;;;;;;;;;;5137432;27;20441;-62
2023/09/27 03:33:26;;;;;;;0.70;0.70;;;;;;;;;;5137490;27;20520;-62
2023/09/27 03:35:53;;;;;;;1.43;1.33;;;;;;;;;;5136925;27;20445;-62
2023/09/27 03:38:20;;;;;;;0.80;0.80;;;;;;;;;;5136894;27;21024;-62
2023/09/27 03:40:49;;;;;;;0.70;0.70;;;;;;;;;;5137545;27;20590;-62
2023/09/27 03:43:17;;;;;;;0.70;0.70;;;;;;;;;;5137163;27;20476;-62
2023/09/27 03:45:44;;;;;;;0.80;0.80;;;;;;;;;;5137054;27;20476;-62
2023/09/27 03:48:12;;;;;;;0.80;0.80;;;;;;;;;;5136967;27;20450;-62
2023/09/27 03:50:39;;;;;;;0.70;0.70;;;;;;;;;;5136626;27;20439;-62
2023/09/27 03:53:07;;;;;;;0.80;0.80;;;;;;;;;;5136654;27;20809;-62
2023/09/27 03:55:34;;;;;;;0.80;0.80;;;;;;;;;;5136929;27;20475;-62
2023/09/27 03:58:02;;;;;;;0.80;0.80;;;;;;;;;;5130648;27;20456;-62
2023/09/27 04:00:30;;;;;;;0.80;0.80;;;;;;;;;;5115384;28;20444;-62
2023/09/27 04:02:57;;;;;;;0.80;0.80;;;;;;;;;;5115571;28;20545;-62
2023/09/27 04:05:26;;;;;;;0.80;0.80;;;;;;;;;;5115642;28;20437;-62
2023/09/27 04:07:54;;;;;;;0.80;0.80;;;;;;;;;;5115121;28;20514;-62
2023/09/27 04:10:21;;;;;;;0.80;0.80;;;;;;;;;;5115404;28;20914;-62
2023/09/27 04:12:48;;;;;;;0.73;0.73;;;;;;;;;;5115440;28;20795;-62
2023/09/27 04:15:17;;;;;;;0.80;0.80;;;;;;;;;;5115040;28;20487;-62
2023/09/27 04:17:44;;;;;;;0.80;0.80;;;;;;;;;;5115298;28;20518;-63
2023/09/27 04:20:17;;;;;;;0.80;0.80;;;;;;;;;;5115043;28;20529;-63
2023/09/27 04:22:44;;;;;;;0.80;0.80;;;;;;;;;;5115587;28;20453;-63
2023/09/27 04:25:13;;;;;;;0.80;0.80;;;;;;;;;;5115348;28;20969;-63
2023/09/27 04:27:41;;;;;;;0.80;0.80;;;;;;;;;;5115228;28;20440;-63
2023/09/27 04:30:11;;;;;;;0.93;0.93;;;;;;;;;;5115385;28;20983;-62
2023/09/27 04:32:40;;;;;;;0.80;0.80;;;;;;;;;;5115541;28;20429;-67
2023/09/27 04:35:09;;;;;;;0.80;0.80;;;;;;;;;;5115144;28;20508;-72
2023/09/27 04:37:36;;;;;;;0.80;0.80;;;;;;;;;;5114862;28;20958;-64
2023/09/27 04:40:06;;;;;;;2.07;1.97;;;;;;;;;;5115030;28;20438;-63
2023/09/27 04:42:34;;;;;;;0.80;0.80;;;;;;;;;;5115093;28;20524;-64
2023/09/27 04:45:02;;;;;;;0.80;0.80;;;;;;;;;;5114741;28;20448;-64
2023/09/27 04:47:29;;;;;;;0.80;0.80;;;;;;;;;;5115252;28;20784;-64
2023/09/27 04:49:58;;;;;;;0.80;0.80;;;;;;;;;;5115148;28;20527;-63
2023/09/27 04:52:26;;;;;;;0.80;0.80;;;;;;;;;;5114525;28;20450;-63
2023/09/27 04:54:56;;;;;;;0.80;0.80;;;;;;;;;;5115061;28;20538;-63
2023/09/27 04:57:24;;;;;;;0.80;0.80;;;;;;;;;;5114462;28;20436;-63
2023/09/27 04:59:52;;;;;;;0.90;0.90;;;;;;;;;;5114742;28;20841;-63
2023/09/27 05:02:19;;;;;;;0.80;0.80;;;;;;;;;;5114190;28;20449;-63
2023/09/27 05:04:47;;;;;;;0.80;0.80;;;;;;;;;;5114159;28;20447;-63
2023/09/27 05:07:15;;;;;;;0.80;0.80;;;;;;;;;;5114566;28;20445;-64
2023/09/27 05:09:43;;;;;;;0.80;0.80;;;;;;;;;;5114233;28;20494;-65
2023/09/27 05:12:10;;;;;;;0.80;0.80;;;;;;;;;;5114296;28;21011;-63
2023/09/27 05:14:37;;;;;;;0.70;0.70;;;;;;;;;;5114187;28;20515;-63
2023/09/27 05:17:04;;;;;;;0.90;0.90;;;;;;;;;;5114503;28;20459;-63
2023/09/27 05:19:32;;;;;;;0.80;0.80;;;;;;;;;;5114521;28;20444;-63
2023/09/27 05:22:00;;;;;;;0.80;0.80;;;;;;;;;;5113939;28;20530;-63
2023/09/27 05:24:28;;;;;;;0.80;0.80;;;;;;;;;;5113675;28;20568;-63
2023/09/27 05:26:59;;;;;;;0.80;0.80;;;;;;;;;;5113482;28;20527;-63
2023/09/27 05:29:26;;;;;;;0.77;0.77;;;;;;;;;;5114169;28;20821;-63
2023/09/27 05:31:54;;;;;;;0.80;0.80;;;;;;;;;;5114354;28;20925;-64
2023/09/27 05:34:21;;;;;;;0.90;0.90;;;;;;;;;;5114281;28;20477;-63
2023/09/27 05:36:48;;;;;;;0.80;0.80;;;;;;;;;;5114328;28;20537;-63
2023/09/27 05:39:15;;;;;;;0.70;0.70;;;;;;;;;;5113997;28;20528;-64
2023/09/27 05:41:44;;;;;;;0.80;0.80;;;;;;;;;;5114256;28;20865;-64
2023/09/27 05:44:11;;;;;;;0.70;0.70;;;;;;;;;;5113291;28;20449;-64
2023/09/27 05:46:40;;;;;;;0.77;0.77;;;;;;;;;;5113585;28;20442;-63
2023/09/27 05:49:09;;;;;;;0.70;0.70;;;;;;;;;;5113884;28;20797;-63
2023/09/27 05:51:36;;;;;;;0.77;0.77;;;;;;;;;;5113424;28;20488;-64
2023/09/27 05:54:05;;;;;;;0.80;0.80;;;;;;;;;;5113359;28;20477;-63
2023/09/27 05:56:33;;;;;;;0.80;0.80;;;;;;;;;;5113874;28;20446;-64
2023/09/27 05:59:01;;;;;;;0.80;0.80;;;;;;;;;;5113202;28;20503;-63
2023/09/27 06:01:31;;;;;;;0.80;0.80;;;;;;;;;;5113622;28;20436;-64
2023/09/27 06:03:59;;;;;;;0.80;0.80;;;;;;;;;;5113011;28;20451;-64
2023/09/27 06:06:26;;;;;;;0.80;0.80;;;;;;;;;;5113588;28;20862;-63
2023/09/27 06:08:54;;;;;;;0.80;0.80;;;;;;;;;;5113901;28;20442;-64
2023/09/27 06:11:22;;;;;;;0.70;0.70;;;;;;;;;;5113765;28;20487;-64
2023/09/27 06:13:49;;;;;;;0.80;0.80;;;;;;;;;;5113160;28;20445;-64
2023/09/27 06:16:19;;;;;;;0.80;0.80;;;;;;;;;;5113879;28;20503;-64
2023/09/27 06:18:46;;;;;;;0.70;0.70;;;;;;;;;;5114081;28;20434;-63
2023/09/27 06:21:14;;;;;;;0.80;0.80;;;;;;;;;;5113773;28;20445;-63
2023/09/27 06:23:41;;;;;;;0.80;0.80;;;;;;;;;;5113207;28;20568;-64
2023/09/27 06:26:08;;;;;;;0.77;0.77;;;;;;;;;;5113630;28;20870;-64
2023/09/27 06:28:37;;;;;;;2.50;2.40;;;;;;;;;;5113389;28;20442;-64
2023/09/27 06:31:06;;;;;;;0.80;0.80;;;;;;;;;;5113287;28;20920;-63
2023/09/27 06:33:34;;;;;;;0.80;0.80;;;;;;;;;;5113363;28;20431;-64
2023/09/27 06:36:02;;;;;;;0.73;0.73;;;;;;;;;;5113428;28;20468;-63
2023/09/27 06:38:29;;;;;;;0.70;0.70;;;;;;;;;;5115230;28;20517;-64
2023/09/27 06:40:57;;;;;;;0.80;0.80;;;;;;;;;;5117425;28;20445;-63
2023/09/27 06:43:28;;;;;;;1.10;1.10;;;;;;;;;;5116799;28;20460;-64
2023/09/27 06:45:55;;;;;;;1.00;1.00;;;;;;;;;;5117399;28;20430;-63
2023/09/27 06:48:22;;;;;;;0.80;0.80;;;;;;;;;;5117200;28;20527;-64
2023/09/27 06:50:51;;;;;;;0.70;0.70;;;;;;;;;;5117474;28;20470;-64
2023/09/27 06:53:18;;;;;;;0.80;0.80;;;;;;;;;;5117491;28;20807;-63
2023/09/27 06:55:45;;;;;;;0.70;0.70;;;;;;;;;;5117144;28;20473;-64
2023/09/27 06:58:13;;;;;;;0.70;0.70;;;;;;;;;;5117479;28;20515;-63
2023/09/27 07:00:41;;;;;;;0.80;0.80;;;;;;;;;;5117212;28;20450;-63
2023/09/27 07:03:09;;;;;;;0.80;0.80;;;;;;;;;;5116971;28;20441;-64
2023/09/27 07:05:36;;;;;;;0.70;0.70;;;;;;;;;;5116549;28;20450;-63
2023/09/27 07:08:05;;;;;;;0.70;0.70;;;;;;;;;;5117007;28;20441;-63
2023/09/27 07:10:32;;;;;;;0.80;0.80;;;;;;;;;;5116357;28;20445;-63
2023/09/27 07:12:59;;;;;;;0.70;0.70;;;;;;;;;;5117118;28;20798;-63
2023/09/27 07:15:27;;;;;;;0.70;0.70;;;;;;;;;;5116231;28;20499;-63
2023/09/27 07:17:54;;;;;;;0.80;0.80;;;;;;;;;;5116980;28;20502;-63
2023/09/27 07:20:27;;;;;;;0.70;0.70;;;;;;;;;;5116232;28;20527;-63
2023/09/27 07:22:54;;;;;;;0.80;0.80;;;;;;;;;;5116723;28;20873;-63
2023/09/27 07:25:23;;;;;;;0.70;0.70;;;;;;;;;;5115734;28;20822;-64
2023/09/27 07:27:50;;;;;;;0.70;0.70;;;;;;;;;;5116088;28;20988;-63
2023/09/27 07:30:23;;;;;;;0.70;0.70;;;;;;;;;;5116499;28;20850;-63
2023/09/27 07:32:50;;;;;;;0.70;0.70;;;;;;;;;;5116728;28;20425;-63
2023/09/27 07:35:19;;;;;;;0.70;0.70;;;;;;;;;;5115790;28;20659;-63
2023/09/27 07:37:47;;;;;;;0.70;0.70;;;;;;;;;;5116330;28;20528;-63
2023/09/27 07:40:15;;;;;;;0.90;0.90;;;;;;;;;;5116705;28;20796;-64
2023/09/27 07:42:46;;;;;;;0.70;0.70;;;;;;;;;;5116513;28;20795;-63
2023/09/27 07:45:16;;;;;;;0.70;0.70;;;;;;;;;;5115821;28;20726;-63
2023/09/27 07:47:43;;;;;;;0.73;0.73;;;;;;;;;;5115805;28;20423;-63
2023/09/27 07:50:11;;;;;;;0.70;0.70;;;;;;;;;;5116006;28;20484;-63
2023/09/27 07:52:38;;;;;;;0.70;0.70;;;;;;;;;;5115989;28;20532;-63
2023/09/27 07:55:09;;;;;;;0.70;0.70;;;;;;;;;;5115724;28;20481;-63
2023/09/27 07:57:36;;;;;;;0.90;0.90;;;;;;;;;;5116061;28;20774;-63
2023/09/27 08:00:09;;;;;;;0.70;0.70;;;;;;;;;;5115775;28;20446;-63
2023/09/27 08:02:36;;;;;;;0.70;0.70;;;;;;;;;;5116327;28;20452;-63
2023/09/27 08:05:09;;;;;;;0.70;0.70;;;;;;;;;;5115448;28;20441;-63
2023/09/27 08:07:36;;;;;;;0.70;0.70;;;;;;;;;;5115766;28;20449;-63
2023/09/27 08:10:04;;;;;;;0.70;0.70;;;;;;;;;;5115449;28;20531;-63
2023/09/27 08:12:32;;;;;;;0.70;0.70;;;;;;;;;;5115699;28;20946;-63
2023/09/27 08:14:59;;;;;;;0.80;0.80;;;;;;;;;;5115524;28;20492;-63
2023/09/27 08:17:28;;;;;;;0.70;0.70;;;;;;;;;;5115566;28;20464;-63
2023/09/27 08:19:55;;;;;;;0.80;0.80;;;;;;;;;;5115851;28;20446;-63
2023/09/27 08:22:22;;;;;;;0.70;0.70;;;;;;;;;;5115661;28;20517;-63
2023/09/27 08:24:49;;;;;;;0.70;0.70;;;;;;;;;;5114491;28;20498;-63
2023/09/27 08:27:17;;;;;;;0.80;0.80;;;;;;;;;;5114968;28;20439;-64
2023/09/27 08:29:45;;;;;;;0.70;0.70;;;;;;;;;;5115001;28;20442;-64
2023/09/27 08:32:12;;;;;;;0.70;0.70;;;;;;;;;;5115517;28;20525;-63
2023/09/27 08:34:41;;;;;;;0.70;0.70;;;;;;;;;;5115301;28;20445;-63
2023/09/27 08:37:11;;;;;;;0.70;0.70;;;;;;;;;;5115227;28;20791;-63
2023/09/27 08:39:39;;;;;;;0.70;0.70;;;;;;;;;;5114924;28;21004;-63
2023/09/27 08:42:06;;;;;;;0.70;0.70;;;;;;;;;;5114780;28;20434;-63
2023/09/27 08:44:34;;;;;;;0.70;0.70;;;;;;;;;;5115011;28;20434;-63
2023/09/27 08:47:03;;;;;;;0.70;0.70;;;;;;;;;;5114512;28;20442;-63
2023/09/27 08:49:30;;;;;;;0.70;0.70;;;;;;;;;;5114467;28;20452;-63
2023/09/27 08:51:59;;;;;;;0.70;0.70;;;;;;;;;;5114447;28;20526;-63
2023/09/27 08:54:26;;;;;;;0.70;0.70;;;;;;;;;;5115151;28;20452;-63
2023/09/27 08:56:53;;;;;;;0.70;0.70;;;;;;;;;;5114667;28;20564;-63
2023/09/27 08:59:21;;;;;;;0.70;0.70;;;;;;;;;;5114643;28;20441;-63
2023/09/27 09:01:48;;;;;;;0.70;0.70;;;;;;;;;;5113427;28;20445;-63
2023/09/27 09:04:16;;;;;;;0.70;0.70;;;;;;;;;;5114631;28;20530;-64
2023/09/27 09:06:43;;;;;;;0.77;0.77;;;;;;;;;;5114212;28;20438;-63
2023/09/27 09:09:12;;;;;;;0.70;0.70;;;;;;;;;;5114664;28;20525;-63
2023/09/27 09:11:43;;;;;;;0.70;0.70;;;;;;;;;;5114143;28;20439;-63
2023/09/27 09:14:10;;;;;;;0.80;0.80;;;;;;;;;;5114917;28;20915;-63
2023/09/27 09:16:47;;;;;;;0.70;0.70;;;;;;;;;;5113816;28;20964;-63
2023/09/27 09:19:19;;;;;;;0.70;0.70;;;;;;;;;;5114421;28;20517;-63
2023/09/27 09:21:47;;;;;;;0.70;0.70;;;;;;;;;;5114742;28;20448;-63
2023/09/27 09:24:21;;;;;;;0.80;0.80;;;;;;;;;;5113238;28;20512;-64
2023/09/27 09:26:49;;;;;;;0.70;0.70;;;;;;;;;;5113374;28;20439;-64
2023/09/27 09:29:18;;;;;;;0.80;0.80;;;;;;;;;;5113873;28;20442;-63
2023/09/27 09:31:53;;;;;;;0.70;0.70;;;;;;;;;;5114125;28;20441;-63
2023/09/27 09:34:20;;;;;;;0.70;0.70;;;;;;;;;;5114044;28;20903;-63
2023/09/27 09:36:48;;;;;;;0.70;0.70;;;;;;;;;;5113695;28;20814;-63
2023/09/27 09:39:17;;;;;;;0.70;0.70;;;;;;;;;;5114058;28;20471;-63
2023/09/27 09:41:46;;;;;;;0.70;0.70;;;;;;;;;;5114084;28;20791;-63
2023/09/27 09:44:19;;;;;;;0.90;0.90;;;;;;;;;;5114298;28;21011;-63
2023/09/27 09:46:46;;;;;;;0.70;0.70;;;;;;;;;;5114246;28;20884;-63
2023/09/27 09:49:14;;;;;;;0.80;0.80;;;;;;;;;;5114240;28;20525;-63
2023/09/27 09:51:42;;;;;;;0.70;0.70;;;;;;;;;;5114023;28;20868;-63
2023/09/27 09:54:09;;;;;;;0.70;0.70;;;;;;;;;;5113769;28;20442;-63
2023/09/27 09:56:39;;;;;;;0.70;0.70;;;;;;;;;;5113566;28;21087;-63
2023/09/27 09:59:10;;;;;;;0.70;0.70;;;;;;;;;;5113934;28;20542;-63
2023/09/27 10:01:38;;;;;;;0.70;0.70;;;;;;;;;;5113520;28;20415;-63
2023/09/27 10:04:07;;;;;;;0.70;0.70;;;;;;;;;;5114067;28;20503;-63
2023/09/27 10:06:35;;;;;;;0.70;0.70;;;;;;;;;;5127318;27;20434;-63
2023/09/27 10:09:05;;;;;;;0.80;0.80;;;;;;;;;;5134543;27;20531;-63
2023/09/27 10:11:33;;;;;;;0.70;0.70;;;;;;;;;;5134310;27;20895;-63
2023/09/27 10:14:00;;;;;;;0.70;0.70;;;;;;;;;;5133859;27;21004;-63
2023/09/27 10:16:29;;;;;;;0.70;0.70;;;;;;;;;;5134104;27;20469;-63
2023/09/27 10:18:57;;;;;;;0.70;0.70;;;;;;;;;;5134327;27;20532;-63
2023/09/27 10:21:24;;;;;;;0.70;0.70;;;;;;;;;;5134101;27;20534;-64
2023/09/27 10:23:58;;;;;;;0.70;0.70;;;;;;;;;;5134524;27;20495;-63
2023/09/27 10:26:33;;;;;;;0.90;0.90;;;;;;;;;;5134871;28;20410;-64
2023/09/27 10:29:12;;;;;;;0.70;0.70;;;;;;;;;;5133991;28;20437;-63
2023/09/27 10:32:01;;;;;;;0.70;0.70;;;;;;;;;;5134088;28;20434;-63
2023/09/27 10:34:46;;;;;;;0.70;0.70;;;;;;;;;;5133809;28;20426;-63
2023/09/27 10:37:14;;;;;;;0.70;0.70;;;;;;;;;;5133923;28;20611;-63
2023/09/27 10:39:42;;;;;;;0.70;0.70;;;;;;;;;;5134095;28;20494;-63
2023/09/27 10:42:09;;;;;;;1.53;1.00;;;;;;;;;;5133860;28;20437;-63
2023/09/27 10:44:41;;;;;;;0.70;0.70;;;;;;;;;;5133600;28;20433;-63
2023/09/27 10:47:08;;;;;;;0.70;0.70;;;;;;;;;;5133946;28;20787;-63
2023/09/27 10:49:38;;;;;;;0.70;0.70;;;;;;;;;;5133636;28;20434;-63
2023/09/27 10:52:06;;;;;;;0.70;0.70;;;;;;;;;;5134436;28;20840;-63
2023/09/27 10:54:35;;;;;;;0.70;0.70;;;;;;;;;;5134150;28;20536;-63
2023/09/27 10:57:03;;;;;;;0.80;0.80;;;;;;;;;;5133346;28;20522;-63
2023/09/27 10:59:31;;;;;;;0.70;0.70;;;;;;;;;;5133928;28;20468;-63
2023/09/27 11:01:58;;;;;;;0.70;0.70;;;;;;;;;;5133341;28;20903;-63
2023/09/27 11:04:26;;;;;;;0.70;0.70;;;;;;;;;;5133784;28;20432;-63
2023/09/27 11:06:55;;;;;;;0.70;0.70;;;;;;;;;;5133875;28;20466;-63
2023/09/27 11:09:23;;;;;;;0.70;0.70;;;;;;;;;;5133285;28;20439;-63
2023/09/27 11:11:54;;;;;;;0.70;0.70;;;;;;;;;;5133685;28;20527;-63
2023/09/27 11:14:27;;;;;;;0.70;0.70;;;;;;;;;;5133410;28;20509;-63
2023/09/27 11:17:13;;;;;;;0.70;0.70;;;;;;;;;;5133593;28;20561;-63
2023/09/27 11:19:40;;;;;;;0.70;0.70;;;;;;;;;;5116693;28;20470;-63
2023/09/27 11:22:07;;;;;;;0.80;0.80;;;;;;;;;;5132683;28;20445;-63
2023/09/27 11:24:38;;;;;;;0.70;0.70;;;;;;;;;;5133609;27;20862;-63
2023/09/27 11:27:07;;;;;;;0.70;0.70;;;;;;;;;;5136686;27;20430;-63
2023/09/27 11:29:34;;;;;;;1.83;1.73;;;;;;;;;;5136979;27;20436;-63
2023/09/27 11:32:01;;;;;;;0.70;0.70;;;;;;;;;;5136789;27;20526;-63
2023/09/27 11:34:28;;;;;;;0.80;0.80;;;;;;;;;;5136817;27;20935;-63
2023/09/27 11:36:57;;;;;;;0.70;0.70;;;;;;;;;;5136682;27;20567;-63
2023/09/27 11:39:27;;;;;;;0.70;0.70;;;;;;;;;;5137159;27;20524;-63
2023/09/27 11:41:58;;;;;;;0.70;0.70;;;;;;;;;;5136628;27;20455;-63
2023/09/27 11:44:28;;;;;;;0.70;0.70;;;;;;;;;;5136738;27;20451;-63
2023/09/27 11:47:05;;;;;;;0.70;0.63;;;;;;;;;;5136513;27;20443;-63
2023/09/27 11:49:33;;;;;;;0.70;0.70;;;;;;;;;;5136357;27;20436;-63
2023/09/27 11:52:01;;;;;;;0.70;0.70;;;;;;;;;;5136629;27;20443;-63
2023/09/27 11:54:28;;;;;;;0.70;0.60;;;;;;;;;;5136271;27;20511;-63
2023/09/27 11:56:56;;;;;;;0.70;0.70;;;;;;;;;;5135999;27;20983;-63
2023/09/27 11:59:23;;;;;;;0.70;0.70;;;;;;;;;;5136757;27;20469;-63
2023/09/27 12:01:52;;;;;;;0.70;0.70;;;;;;;;;;5136643;27;20437;-63
2023/09/27 12:04:20;;;;;;;0.70;0.70;;;;;;;;;;5136414;27;20862;-63
2023/09/27 12:06:47;;;;;;;0.70;0.70;;;;;;;;;;5136300;27;20444;-63
2023/09/27 12:09:15;;;;;;;0.80;0.80;;;;;;;;;;5136593;27;20435;-63
2023/09/27 12:11:42;;;;;;;0.70;0.70;;;;;;;;;;5136333;27;20447;-63
2023/09/27 12:14:09;;;;;;;0.70;0.70;;;;;;;;;;5136059;27;20441;-63
2023/09/27 12:16:37;;;;;;;0.70;0.70;;;;;;;;;;5135667;27;20836;-63
2023/09/27 12:19:05;;;;;;;0.70;0.70;;;;;;;;;;5136597;27;20536;-63
2023/09/27 12:21:34;;;;;;;0.70;0.70;;;;;;;;;;5136259;27;20444;-63
2023/09/27 12:24:03;;;;;;;0.70;0.70;;;;;;;;;;5135894;27;20483;-63
2023/09/27 12:26:30;;;;;;;0.70;0.70;;;;;;;;;;5136200;27;20912;-63
2023/09/27 12:28:58;;;;;;;0.70;0.70;;;;;;;;;;5135746;27;20937;-63
2023/09/27 12:31:25;;;;;;;0.70;0.70;;;;;;;;;;5135630;27;20462;-63
2023/09/27 12:33:52;;;;;;;0.90;0.90;;;;;;;;;;5135466;27;20998;-63
2023/09/27 12:36:21;;;;;;;0.90;0.90;;;;;;;;;;5135101;27;20504;-63
2023/09/27 12:38:49;;;;;;;0.70;0.70;;;;;;;;;;5135554;27;20441;-63
2023/09/27 12:41:17;;;;;;;0.70;0.70;;;;;;;;;;5135836;27;20438;-63
2023/09/27 12:43:45;;;;;;;1.10;0.97;;;;;;;;;;5135165;27;20464;-63
2023/09/27 12:46:13;;;;;;;0.70;0.70;;;;;;;;;;5135662;27;20947;-63
2023/09/27 12:48:40;;;;;;;0.70;0.70;;;;;;;;;;5135563;27;20489;-63
2023/09/27 12:51:09;;;;;;;0.70;0.70;;;;;;;;;;5134928;27;20532;-63
2023/09/27 12:53:38;;;;;;;0.70;0.70;;;;;;;;;;5135370;27;20568;-63
2023/09/27 12:56:05;;;;;;;0.70;0.70;;;;;;;;;;5134904;27;20441;-63
2023/09/27 12:58:32;;;;;;;0.70;0.70;;;;;;;;;;5134876;27;20436;-63
2023/09/27 13:00:59;;;;;;;0.70;0.70;;;;;;;;;;5135252;27;20437;-63
2023/09/27 13:03:27;;;;;;;0.70;0.70;;;;;;;;;;5134989;27;20960;-63
2023/09/27 13:05:54;;;;;;;0.70;0.70;;;;;;;;;;5135219;27;20445;-63
2023/09/27 13:08:21;;;;;;;0.80;0.80;;;;;;;;;;5134956;27;20444;-63
2023/09/27 13:10:50;;;;;;;0.70;0.70;;;;;;;;;;5134636;27;20437;-63
2023/09/27 13:13:17;;;;;;;0.70;0.70;;;;;;;;;;5135115;27;20523;-63
2023/09/27 13:15:45;;;;;;;0.73;0.73;;;;;;;;;;5134690;27;20502;-63
2023/09/27 13:18:12;;;;;;;0.77;0.77;;;;;;;;;;5134479;27;20471;-63
2023/09/27 13:20:40;;;;;;;0.70;0.70;;;;;;;;;;5134827;27;20444;-63
2023/09/27 13:23:07;;;;;;;0.73;0.73;;;;;;;;;;5134582;27;20539;-63
2023/09/27 13:25:34;;;;;;;0.70;0.70;;;;;;;;;;5134333;27;20472;-63
2023/09/27 13:28:03;;;;;;;0.70;0.70;;;;;;;;;;5134568;27;20448;-63
2023/09/27 13:30:31;;;;;;;0.70;0.70;;;;;;;;;;5134354;27;20993;-63
2023/09/27 13:32:59;;;;;;;0.80;0.80;;;;;;;;;;5134577;27;20448;-63
2023/09/27 13:35:26;;;;;;;0.80;0.80;;;;;;;;;;5134356;27;20433;-63
2023/09/27 13:37:53;;;;;;;0.80;0.80;;;;;;;;;;5133765;27;21012;-63
2023/09/27 13:40:21;;;;;;;0.70;0.70;;;;;;;;;;5134499;27;20449;-63
2023/09/27 13:42:48;;;;;;;0.70;0.70;;;;;;;;;;5134509;27;20441;-63
2023/09/27 13:45:16;;;;;;;0.70;0.70;;;;;;;;;;5134364;27;20531;-63
2023/09/27 13:47:44;;;;;;;0.70;0.70;;;;;;;;;;5133846;27;20484;-64
2023/09/27 13:50:12;;;;;;;0.70;0.70;;;;;;;;;;5133878;27;20521;-63
2023/09/27 13:52:40;;;;;;;0.70;0.70;;;;;;;;;;5133947;27;20452;-63
2023/09/27 13:55:10;;;;;;;0.90;0.90;;;;;;;;;;5133884;27;20452;-63
2023/09/27 13:57:38;;;;;;;0.70;0.70;;;;;;;;;;5133245;27;20480;-63
2023/09/27 14:00:07;;;;;;;0.70;0.70;;;;;;;;;;5133965;27;20537;-63
2023/09/27 14:02:35;;;;;;;0.70;0.70;;;;;;;;;;5134689;27;20453;-63
2023/09/27 14:05:03;;;;;;;0.70;0.70;;;;;;;;;;5133998;27;20449;-63
2023/09/27 14:07:30;;;;;;;0.70;0.70;;;;;;;;;;5133827;27;20531;-63
2023/09/27 14:09:57;;;;;;;0.70;0.70;;;;;;;;;;5133878;27;20495;-63
2023/09/27 14:12:24;;;;;;;0.70;0.70;;;;;;;;;;5133481;27;20438;-63
2023/09/27 14:14:52;;;;;;;0.70;0.70;;;;;;;;;;5134062;27;20524;-63
2023/09/27 14:17:20;;;;;;;0.70;0.70;;;;;;;;;;5133015;27;20469;-63
2023/09/27 14:19:49;;;;;;;0.70;0.70;;;;;;;;;;5133420;27;20444;-63
2023/09/27 14:22:16;;;;;;;0.70;0.70;;;;;;;;;;5133705;27;20537;-63
2023/09/27 14:24:43;;;;;;;0.70;0.70;;;;;;;;;;5133293;27;20550;-64
2023/09/27 14:27:11;;;;;;;0.70;0.70;;;;;;;;;;5133486;28;20448;-64
2023/09/27 14:29:38;;;;;;;0.70;0.70;;;;;;;;;;5133544;28;20966;-63
2023/09/27 14:32:05;;;;;;;0.70;0.70;;;;;;;;;;5117706;28;20435;-63
2023/09/27 14:34:34;;;;;;;0.80;0.80;;;;;;;;;;5113333;28;20438;-63
2023/09/27 14:37:03;;;;;;;0.70;0.70;;;;;;;;;;5112451;28;20477;-63
2023/09/27 14:39:30;;;;;;;1.27;1.27;;;;;;;;;;5113110;28;20780;-61
2023/09/27 14:41:58;;;;;;;0.70;0.70;;;;;;;;;;5113054;28;20447;-63
2023/09/27 14:44:25;;;;;;;0.80;0.80;;;;;;;;;;5113173;28;20534;-64
2023/09/27 14:46:53;;;;;;;0.70;0.70;;;;;;;;;;5113054;28;20437;-64
2023/09/27 14:49:20;;;;;;;0.70;0.70;;;;;;;;;;5112874;28;20545;-63